Avella, Pennsylvania
Current Conditions -  °F | °C
As of 9:11 AM on Saturday 22 Nov 2014 (Local Time) from KHLG Reporting Station
Overcast Overcast  
Wind Chill: -5°   Ceiling: 2800
Heat Index:   Visibility: 10mi
Dew Point: -12°   Wind: 10mph
Humidity: 40%   Direction: 220°SW
Pressure: 30.31"   Gusts: NA
Location:  40.28°N, 80.46°W
Report Text: KHLG 221411Z AUTO 22009KT 10SM FEW021 BKN028 OVC035 00/M12 A3031 RMK AO2 T00001122
Loading
Personal Weather Stations






























Interactive Weather Map New forecast layout! Learn more

10-Day Weather Forecast

Advertisements
Track Severe Weather on mobile